sensor_id;sensor_type;location;lat;lon;timestamp;P1;durP1;ratioP1;P2;durP2;ratioP2
69892;SDS011;61212;42.688;22.176;2023-02-01T00:00:21;20.10;;;7.35;;
69892;SDS011;61212;42.688;22.176;2023-02-01T00:02:47;18.33;;;6.60;;
69892;SDS011;61212;42.688;22.176;2023-02-01T00:05:13;15.02;;;6.82;;
69892;SDS011;61212;42.688;22.176;2023-02-01T00:07:39;13.02;;;5.28;;
69892;SDS011;61212;42.688;22.176;2023-02-01T00:10:06;8.60;;;4.03;;
69892;SDS011;61212;42.688;22.176;2023-02-01T00:12:32;18.95;;;5.53;;
69892;SDS011;61212;42.688;22.176;2023-02-01T00:14:59;14.60;;;5.55;;
69892;SDS011;61212;42.688;22.176;2023-02-01T00:17:25;10.98;;;5.30;;
69892;SDS011;61212;42.688;22.176;2023-02-01T00:19:51;16.10;;;6.28;;
69892;SDS011;61212;42.688;22.176;2023-02-01T00:22:17;11.23;;;5.15;;
69892;SDS011;61212;42.688;22.176;2023-02-01T00:24:43;9.25;;;5.60;;
69892;SDS011;61212;42.688;22.176;2023-02-01T00:27:09;12.50;;;5.88;;
69892;SDS011;61212;42.688;22.176;2023-02-01T00:29:35;12.80;;;6.25;;
69892;SDS011;61212;42.688;22.176;2023-02-01T00:32:01;17.45;;;6.68;;
69892;SDS011;61212;42.688;22.176;2023-02-01T00:34:27;14.35;;;8.23;;
69892;SDS011;61212;42.688;22.176;2023-02-01T00:36:53;20.33;;;9.00;;
69892;SDS011;61212;42.688;22.176;2023-02-01T00:39:19;34.97;;;15.93;;
69892;SDS011;61212;42.688;22.176;2023-02-01T00:41:46;41.58;;;18.00;;
69892;SDS011;61212;42.688;22.176;2023-02-01T00:44:12;32.95;;;18.42;;
69892;SDS011;61212;42.688;22.176;2023-02-01T00:46:38;31.48;;;17.30;;
69892;SDS011;61212;42.688;22.176;2023-02-01T00:49:04;31.85;;;17.38;;
69892;SDS011;61212;42.688;22.176;2023-02-01T00:51:32;31.40;;;16.58;;
69892;SDS011;61212;42.688;22.176;2023-02-01T00:53:58;31.58;;;17.65;;
69892;SDS011;61212;42.688;22.176;2023-02-01T00:56:24;36.13;;;19.50;;
69892;SDS011;61212;42.688;22.176;2023-02-01T00:58:52;34.88;;;19.35;;
69892;SDS011;61212;42.688;22.176;2023-02-01T01:01:22;36.60;;;20.70;;
69892;SDS011;61212;42.688;22.176;2023-02-01T01:03:56;37.15;;;21.08;;
69892;SDS011;61212;42.688;22.176;2023-02-01T01:06:23;38.15;;;21.73;;
69892;SDS011;61212;42.688;22.176;2023-02-01T01:08:50;40.50;;;23.25;;
69892;SDS011;61212;42.688;22.176;2023-02-01T01:11:18;39.85;;;22.08;;
69892;SDS011;61212;42.688;22.176;2023-02-01T01:13:47;49.85;;;22.90;;
69892;SDS011;61212;42.688;22.176;2023-02-01T01:16:14;47.03;;;24.33;;
69892;SDS011;61212;42.688;22.176;2023-02-01T01:18:40;56.72;;;27.98;;
69892;SDS011;61212;42.688;22.176;2023-02-01T01:21:07;64.63;;;30.45;;
69892;SDS011;61212;42.688;22.176;2023-02-01T01:23:34;67.55;;;33.75;;
69892;SDS011;61212;42.688;22.176;2023-02-01T01:26:00;74.75;;;34.00;;
69892;SDS011;61212;42.688;22.176;2023-02-01T01:28:26;70.57;;;36.17;;
69892;SDS011;61212;42.688;22.176;2023-02-01T01:30:52;67.80;;;34.15;;
69892;SDS011;61212;42.688;22.176;2023-02-01T01:33:18;54.20;;;27.70;;
69892;SDS011;61212;42.688;22.176;2023-02-01T01:35:45;55.60;;;29.27;;
69892;SDS011;61212;42.688;22.176;2023-02-01T01:38:11;55.75;;;29.40;;
69892;SDS011;61212;42.688;22.176;2023-02-01T01:40:37;49.97;;;25.33;;
69892;SDS011;61212;42.688;22.176;2023-02-01T01:43:03;39.00;;;21.73;;
69892;SDS011;61212;42.688;22.176;2023-02-01T01:45:30;36.53;;;19.88;;
69892;SDS011;61212;42.688;22.176;2023-02-01T01:48:02;40.17;;;21.40;;
69892;SDS011;61212;42.688;22.176;2023-02-01T01:50:31;40.28;;;23.33;;
69892;SDS011;61212;42.688;22.176;2023-02-01T01:53:00;49.28;;;24.27;;
69892;SDS011;61212;42.688;22.176;2023-02-01T01:55:27;42.30;;;23.42;;
69892;SDS011;61212;42.688;22.176;2023-02-01T01:58:00;45.92;;;23.75;;
69892;SDS011;61212;42.688;22.176;2023-02-01T02:00:27;46.78;;;23.42;;
69892;SDS011;61212;42.688;22.176;2023-02-01T02:02:58;49.30;;;25.10;;
69892;SDS011;61212;42.688;22.176;2023-02-01T02:05:28;42.22;;;23.05;;
69892;SDS011;61212;42.688;22.176;2023-02-01T02:07:56;47.53;;;23.30;;
69892;SDS011;61212;42.688;22.176;2023-02-01T02:10:24;48.55;;;25.98;;
69892;SDS011;61212;42.688;22.176;2023-02-01T02:13:10;54.03;;;25.98;;
69892;SDS011;61212;42.688;22.176;2023-02-01T02:15:38;59.08;;;29.23;;
69892;SDS011;61212;42.688;22.176;2023-02-01T02:18:11;56.58;;;31.17;;
69892;SDS011;61212;42.688;22.176;2023-02-01T02:20:48;59.42;;;32.40;;
69892;SDS011;61212;42.688;22.176;2023-02-01T02:23:40;48.72;;;28.48;;
69892;SDS011;61212;42.688;22.176;2023-02-01T02:34:03;42.65;;;24.10;;
69892;SDS011;61212;42.688;22.176;2023-02-01T02:39:12;43.47;;;21.58;;
69892;SDS011;61212;42.688;22.176;2023-02-01T02:44:50;44.72;;;25.35;;
69892;SDS011;61212;42.688;22.176;2023-02-01T02:53:04;38.28;;;19.90;;
69892;SDS011;61212;42.688;22.176;2023-02-01T02:55:51;35.20;;;19.63;;
69892;SDS011;61212;42.688;22.176;2023-02-01T02:58:36;41.38;;;22.25;;
69892;SDS011;61212;42.688;22.176;2023-02-01T03:01:21;49.40;;;24.73;;
69892;SDS011;61212;42.688;22.176;2023-02-01T03:04:05;43.60;;;25.52;;
69892;SDS011;61212;42.688;22.176;2023-02-01T03:06:37;48.45;;;26.65;;
69892;SDS011;61212;42.688;22.176;2023-02-01T03:09:04;43.92;;;24.85;;
69892;SDS011;61212;42.688;22.176;2023-02-01T03:11:33;47.75;;;26.20;;
69892;SDS011;61212;42.688;22.176;2023-02-01T03:14:19;52.33;;;26.23;;
69892;SDS011;61212;42.688;22.176;2023-02-01T03:16:49;45.75;;;25.38;;
69892;SDS011;61212;42.688;22.176;2023-02-01T03:22:02;49.15;;;27.35;;
69892;SDS011;61212;42.688;22.176;2023-02-01T03:24:33;51.75;;;28.55;;
69892;SDS011;61212;42.688;22.176;2023-02-01T03:27:01;47.10;;;26.13;;
69892;SDS011;61212;42.688;22.176;2023-02-01T03:29:30;51.15;;;27.10;;
69892;SDS011;61212;42.688;22.176;2023-02-01T03:31:58;46.00;;;25.95;;
69892;SDS011;61212;42.688;22.176;2023-02-01T03:34:24;44.42;;;25.33;;
69892;SDS011;61212;42.688;22.176;2023-02-01T03:37:00;47.63;;;28.15;;
69892;SDS011;61212;42.688;22.176;2023-02-01T03:39:41;46.50;;;26.73;;
69892;SDS011;61212;42.688;22.176;2023-02-01T03:42:19;49.70;;;27.10;;
69892;SDS011;61212;42.688;22.176;2023-02-01T03:44:49;54.13;;;28.60;;
69892;SDS011;61212;42.688;22.176;2023-02-01T03:47:23;58.78;;;31.52;;
69892;SDS011;61212;42.688;22.176;2023-02-01T03:49:50;51.45;;;28.60;;
69892;SDS011;61212;42.688;22.176;2023-02-01T03:52:20;53.88;;;29.67;;
69892;SDS011;61212;42.688;22.176;2023-02-01T03:54:47;57.33;;;30.25;;
69892;SDS011;61212;42.688;22.176;2023-02-01T03:57:14;50.72;;;27.98;;
69892;SDS011;61212;42.688;22.176;2023-02-01T03:59:44;52.03;;;29.20;;
69892;SDS011;61212;42.688;22.176;2023-02-01T04:02:11;53.80;;;30.17;;
69892;SDS011;61212;42.688;22.176;2023-02-01T04:04:37;53.45;;;28.40;;
69892;SDS011;61212;42.688;22.176;2023-02-01T04:07:03;51.33;;;27.15;;
69892;SDS011;61212;42.688;22.176;2023-02-01T04:09:29;55.10;;;28.48;;
69892;SDS011;61212;42.688;22.176;2023-02-01T04:11:55;55.22;;;30.35;;
69892;SDS011;61212;42.688;22.176;2023-02-01T04:14:21;59.13;;;30.55;;
69892;SDS011;61212;42.688;22.176;2023-02-01T04:16:47;57.05;;;30.50;;
69892;SDS011;61212;42.688;22.176;2023-02-01T04:19:13;54.17;;;30.42;;
69892;SDS011;61212;42.688;22.176;2023-02-01T04:21:39;47.83;;;29.70;;
69892;SDS011;61212;42.688;22.176;2023-02-01T04:24:06;54.78;;;28.42;;
69892;SDS011;61212;42.688;22.176;2023-02-01T04:26:32;54.38;;;30.83;;
69892;SDS011;61212;42.688;22.176;2023-02-01T04:28:58;60.00;;;33.83;;
69892;SDS011;61212;42.688;22.176;2023-02-01T04:31:24;57.00;;;31.83;;
69892;SDS011;61212;42.688;22.176;2023-02-01T04:33:53;56.38;;;29.35;;
69892;SDS011;61212;42.688;22.176;2023-02-01T04:36:20;49.17;;;27.67;;
69892;SDS011;61212;42.688;22.176;2023-02-01T04:38:47;44.30;;;26.75;;
69892;SDS011;61212;42.688;22.176;2023-02-01T04:41:13;50.60;;;29.17;;
69892;SDS011;61212;42.688;22.176;2023-02-01T04:43:40;52.08;;;28.65;;
69892;SDS011;61212;42.688;22.176;2023-02-01T04:46:06;54.75;;;29.83;;
69892;SDS011;61212;42.688;22.176;2023-02-01T04:48:32;57.20;;;30.05;;
69892;SDS011;61212;42.688;22.176;2023-02-01T04:50:58;51.40;;;29.75;;
69892;SDS011;61212;42.688;22.176;2023-02-01T04:53:24;50.13;;;28.20;;
69892;SDS011;61212;42.688;22.176;2023-02-01T04:55:51;46.33;;;27.33;;
69892;SDS011;61212;42.688;22.176;2023-02-01T04:58:17;55.08;;;31.65;;
69892;SDS011;61212;42.688;22.176;2023-02-01T05:00:43;50.58;;;30.55;;
69892;SDS011;61212;42.688;22.176;2023-02-01T05:03:09;49.92;;;27.45;;
69892;SDS011;61212;42.688;22.176;2023-02-01T05:05:35;52.53;;;27.85;;
69892;SDS011;61212;42.688;22.176;2023-02-01T05:08:01;52.67;;;30.25;;
69892;SDS011;61212;42.688;22.176;2023-02-01T05:10:27;50.40;;;29.42;;
69892;SDS011;61212;42.688;22.176;2023-02-01T05:12:53;53.42;;;29.48;;
69892;SDS011;61212;42.688;22.176;2023-02-01T05:15:38;53.85;;;30.30;;
69892;SDS011;61212;42.688;22.176;2023-02-01T05:18:04;62.38;;;32.38;;
69892;SDS011;61212;42.688;22.176;2023-02-01T05:20:30;57.90;;;30.77;;
69892;SDS011;61212;42.688;22.176;2023-02-01T05:22:56;69.85;;;37.22;;
69892;SDS011;61212;42.688;22.176;2023-02-01T05:25:22;87.22;;;40.75;;
69892;SDS011;61212;42.688;22.176;2023-02-01T05:27:48;66.53;;;35.10;;
69892;SDS011;61212;42.688;22.176;2023-02-01T05:30:14;61.33;;;33.47;;
69892;SDS011;61212;42.688;22.176;2023-02-01T05:32:41;60.67;;;31.20;;
69892;SDS011;61212;42.688;22.176;2023-02-01T05:35:07;64.03;;;35.40;;
69892;SDS011;61212;42.688;22.176;2023-02-01T05:37:33;61.10;;;34.15;;
69892;SDS011;61212;42.688;22.176;2023-02-01T05:39:59;52.08;;;28.17;;
69892;SDS011;61212;42.688;22.176;2023-02-01T05:42:25;46.25;;;27.52;;
69892;SDS011;61212;42.688;22.176;2023-02-01T05:44:51;51.50;;;27.52;;
69892;SDS011;61212;42.688;22.176;2023-02-01T05:47:17;46.40;;;26.42;;
69892;SDS011;61212;42.688;22.176;2023-02-01T05:49:45;43.92;;;24.60;;
69892;SDS011;61212;42.688;22.176;2023-02-01T05:52:11;47.80;;;25.98;;
69892;SDS011;61212;42.688;22.176;2023-02-01T05:54:37;56.33;;;28.15;;
69892;SDS011;61212;42.688;22.176;2023-02-01T05:57:03;56.72;;;28.67;;
69892;SDS011;61212;42.688;22.176;2023-02-01T05:59:29;65.63;;;36.65;;
69892;SDS011;61212;42.688;22.176;2023-02-01T06:01:55;55.08;;;31.75;;
69892;SDS011;61212;42.688;22.176;2023-02-01T06:04:21;53.33;;;29.25;;
69892;SDS011;61212;42.688;22.176;2023-02-01T06:06:47;44.40;;;25.88;;
69892;SDS011;61212;42.688;22.176;2023-02-01T06:09:15;56.97;;;27.58;;
69892;SDS011;61212;42.688;22.176;2023-02-01T06:11:41;53.60;;;28.17;;
69892;SDS011;61212;42.688;22.176;2023-02-01T06:14:07;50.00;;;28.00;;
69892;SDS011;61212;42.688;22.176;2023-02-01T06:16:33;51.95;;;28.80;;
69892;SDS011;61212;42.688;22.176;2023-02-01T06:18:59;49.13;;;26.98;;
69892;SDS011;61212;42.688;22.176;2023-02-01T06:21:25;58.80;;;30.23;;
69892;SDS011;61212;42.688;22.176;2023-02-01T06:23:54;55.97;;;32.03;;
69892;SDS011;61212;42.688;22.176;2023-02-01T06:26:22;65.25;;;34.00;;
69892;SDS011;61212;42.688;22.176;2023-02-01T06:28:48;65.30;;;36.85;;
69892;SDS011;61212;42.688;22.176;2023-02-01T06:31:15;68.75;;;38.92;;
69892;SDS011;61212;42.688;22.176;2023-02-01T06:33:41;81.45;;;46.53;;
69892;SDS011;61212;42.688;22.176;2023-02-01T06:36:07;88.50;;;48.05;;
69892;SDS011;61212;42.688;22.176;2023-02-01T06:38:34;90.25;;;47.05;;
69892;SDS011;61212;42.688;22.176;2023-02-01T06:41:00;91.32;;;48.25;;
69892;SDS011;61212;42.688;22.176;2023-02-01T06:43:27;104.00;;;56.80;;
69892;SDS011;61212;42.688;22.176;2023-02-01T06:45:58;102.47;;;55.85;;
69892;SDS011;61212;42.688;22.176;2023-02-01T06:48:25;101.93;;;55.45;;
69892;SDS011;61212;42.688;22.176;2023-02-01T06:50:51;113.47;;;57.08;;
69892;SDS011;61212;42.688;22.176;2023-02-01T06:53:17;113.10;;;61.97;;
69892;SDS011;61212;42.688;22.176;2023-02-01T06:55:51;134.48;;;71.57;;
69892;SDS011;61212;42.688;22.176;2023-02-01T07:00:43;119.72;;;61.33;;
69892;SDS011;61212;42.688;22.176;2023-02-01T07:03:09;108.57;;;55.92;;
69892;SDS011;61212;42.688;22.176;2023-02-01T07:05:35;97.35;;;51.85;;
69892;SDS011;61212;42.688;22.176;2023-02-01T07:08:01;93.65;;;49.78;;
69892;SDS011;61212;42.688;22.176;2023-02-01T07:10:27;104.40;;;55.03;;
69892;SDS011;61212;42.688;22.176;2023-02-01T07:12:56;133.10;;;70.60;;
69892;SDS011;61212;42.688;22.176;2023-02-01T07:15:22;134.93;;;71.50;;
69892;SDS011;61212;42.688;22.176;2023-02-01T07:17:48;135.90;;;71.35;;
69892;SDS011;61212;42.688;22.176;2023-02-01T07:20:15;132.30;;;69.43;;
69892;SDS011;61212;42.688;22.176;2023-02-01T07:22:41;128.77;;;63.70;;
69892;SDS011;61212;42.688;22.176;2023-02-01T07:25:07;164.05;;;77.85;;
69892;SDS011;61212;42.688;22.176;2023-02-01T07:27:34;115.50;;;59.97;;
69892;SDS011;61212;42.688;22.176;2023-02-01T07:30:00;84.60;;;44.85;;
69892;SDS011;61212;42.688;22.176;2023-02-01T07:32:27;72.35;;;37.15;;
69892;SDS011;61212;42.688;22.176;2023-02-01T07:34:54;56.35;;;30.95;;
69892;SDS011;61212;42.688;22.176;2023-02-01T07:37:20;50.30;;;28.33;;
69892;SDS011;61212;42.688;22.176;2023-02-01T07:39:46;46.55;;;28.58;;
69892;SDS011;61212;42.688;22.176;2023-02-01T07:42:12;51.45;;;29.00;;
69892;SDS011;61212;42.688;22.176;2023-02-01T07:44:38;46.70;;;27.98;;
69892;SDS011;61212;42.688;22.176;2023-02-01T07:47:04;45.70;;;26.90;;
69892;SDS011;61212;42.688;22.176;2023-02-01T07:49:30;62.05;;;36.08;;
69892;SDS011;61212;42.688;22.176;2023-02-01T07:51:56;64.72;;;35.60;;
69892;SDS011;61212;42.688;22.176;2023-02-01T07:54:22;67.65;;;38.40;;
69892;SDS011;61212;42.688;22.176;2023-02-01T07:56:48;64.18;;;37.58;;
69892;SDS011;61212;42.688;22.176;2023-02-01T07:59:14;98.75;;;56.38;;
69892;SDS011;61212;42.688;22.176;2023-02-01T08:01:41;87.90;;;52.55;;
69892;SDS011;61212;42.688;22.176;2023-02-01T08:04:07;104.53;;;57.90;;
69892;SDS011;61212;42.688;22.176;2023-02-01T08:06:35;136.40;;;76.38;;
69892;SDS011;61212;42.688;22.176;2023-02-01T08:09:01;251.80;;;111.50;;
69892;SDS011;61212;42.688;22.176;2023-02-01T08:11:28;222.88;;;107.43;;
69892;SDS011;61212;42.688;22.176;2023-02-01T08:13:54;122.43;;;67.65;;
69892;SDS011;61212;42.688;22.176;2023-02-01T08:16:20;118.65;;;62.22;;
69892;SDS011;61212;42.688;22.176;2023-02-01T08:18:47;99.88;;;57.63;;
69892;SDS011;61212;42.688;22.176;2023-02-01T08:21:14;91.22;;;55.40;;
69892;SDS011;61212;42.688;22.176;2023-02-01T08:23:40;109.03;;;62.45;;
69892;SDS011;61212;42.688;22.176;2023-02-01T08:26:08;79.05;;;49.35;;
69892;SDS011;61212;42.688;22.176;2023-02-01T08:28:34;64.38;;;37.20;;
69892;SDS011;61212;42.688;22.176;2023-02-01T08:31:05;61.10;;;36.85;;
69892;SDS011;61212;42.688;22.176;2023-02-01T08:33:31;58.15;;;34.05;;
69892;SDS011;61212;42.688;22.176;2023-02-01T08:35:57;64.20;;;35.05;;
69892;SDS011;61212;42.688;22.176;2023-02-01T08:38:23;82.32;;;44.88;;
69892;SDS011;61212;42.688;22.176;2023-02-01T08:40:49;63.22;;;35.92;;
69892;SDS011;61212;42.688;22.176;2023-02-01T08:43:15;59.90;;;34.22;;
69892;SDS011;61212;42.688;22.176;2023-02-01T08:45:41;45.75;;;27.20;;
69892;SDS011;61212;42.688;22.176;2023-02-01T08:48:07;66.72;;;37.72;;
69892;SDS011;61212;42.688;22.176;2023-02-01T08:50:33;70.40;;;40.35;;
69892;SDS011;61212;42.688;22.176;2023-02-01T08:52:59;46.10;;;26.88;;
69892;SDS011;61212;42.688;22.176;2023-02-01T08:55:25;46.67;;;29.23;;
69892;SDS011;61212;42.688;22.176;2023-02-01T08:57:51;49.33;;;27.27;;
69892;SDS011;61212;42.688;22.176;2023-02-01T09:00:17;47.40;;;26.88;;
69892;SDS011;61212;42.688;22.176;2023-02-01T09:02:44;51.63;;;32.15;;
69892;SDS011;61212;42.688;22.176;2023-02-01T09:05:10;57.85;;;35.35;;
69892;SDS011;61212;42.688;22.176;2023-02-01T09:07:37;128.18;;;59.40;;
69892;SDS011;61212;42.688;22.176;2023-02-01T09:10:03;46.35;;;27.65;;
69892;SDS011;61212;42.688;22.176;2023-02-01T09:12:31;47.50;;;29.27;;
69892;SDS011;61212;42.688;22.176;2023-02-01T09:14:57;50.75;;;28.73;;
69892;SDS011;61212;42.688;22.176;2023-02-01T09:17:27;42.60;;;25.63;;
69892;SDS011;61212;42.688;22.176;2023-02-01T09:19:54;30.10;;;18.88;;
69892;SDS011;61212;42.688;22.176;2023-02-01T09:22:20;35.58;;;22.00;;
69892;SDS011;61212;42.688;22.176;2023-02-01T09:24:46;36.95;;;22.05;;
69892;SDS011;61212;42.688;22.176;2023-02-01T09:27:13;38.90;;;24.17;;
69892;SDS011;61212;42.688;22.176;2023-02-01T09:29:39;40.97;;;26.27;;
69892;SDS011;61212;42.688;22.176;2023-02-01T09:32:05;30.02;;;19.48;;
69892;SDS011;61212;42.688;22.176;2023-02-01T09:34:32;25.33;;;15.93;;
69892;SDS011;61212;42.688;22.176;2023-02-01T09:36:58;28.48;;;16.48;;
69892;SDS011;61212;42.688;22.176;2023-02-01T09:39:24;24.52;;;14.25;;
69892;SDS011;61212;42.688;22.176;2023-02-01T09:47:14;38.35;;;20.73;;
